Time;durP1;ratioP1;P1;durP2;ratioP2;P2;SDS_P1;SDS_P2;PMS_P1;PMS_P2;Temp;Humidity;BMP_temperature;BMP_pressure;BME280_temperature;BME280_humidity;BME280_pressure;Samples;Min_cycle;Max_cycle;Signal;HPM_P1;HPM_P2
2024/03/19 00:01:30;;;;;;;20.00;9.00;;;10.30;98.00;;;;;;5033521;28;20458;-67
2024/03/19 00:03:59;;;;;;;18.27;8.47;;;10.30;98.00;;;;;;5033785;28;20476;-68
2024/03/19 00:06:26;;;;;;;21.50;8.60;;;10.20;98.00;;;;;;5033527;28;20479;-67
2024/03/19 00:08:55;;;;;;;25.57;10.20;;;10.20;98.00;;;;;;5033552;28;20492;-67
2024/03/19 00:11:22;;;;;;;25.07;9.80;;;10.20;98.00;;;;;;5033568;28;20466;-67
2024/03/19 00:13:49;;;;;;;24.50;9.80;;;10.20;98.00;;;;;;5015816;28;20462;-67
2024/03/19 00:16:18;;;;;;;21.10;9.17;;;10.30;98.00;;;;;;5015876;28;20466;-68
2024/03/19 00:18:46;;;;;;;27.50;8.40;;;10.20;98.00;;;;;;5033119;28;20459;-67
2024/03/19 00:21:13;;;;;;;23.10;9.20;;;10.20;98.00;;;;;;5032762;28;20485;-67
2024/03/19 00:23:41;;;;;;;20.13;9.10;;;10.10;98.00;;;;;;5032883;28;20460;-67
2024/03/19 00:26:10;;;;;;;24.73;9.50;;;10.10;98.00;;;;;;5015430;28;20471;-67
2024/03/19 00:28:38;;;;;;;24.00;9.20;;;10.00;98.00;;;;;;5032738;28;20539;-67
2024/03/19 00:31:06;;;;;;;21.60;9.83;;;10.10;98.00;;;;;;5032791;28;20550;-67
2024/03/19 00:33:33;;;;;;;22.17;9.23;;;10.10;98.00;;;;;;5032671;28;20462;-67
2024/03/19 00:36:01;;;;;;;22.83;9.63;;;10.20;98.00;;;;;;5032887;28;20458;-67
2024/03/19 00:38:29;;;;;;;25.80;10.03;;;10.20;98.00;;;;;;5032803;28;20463;-67
2024/03/19 00:40:57;;;;;;;28.63;10.67;;;10.20;98.00;;;;;;5032498;28;20516;-67
2024/03/19 00:43:25;;;;;;;27.50;9.57;;;10.30;98.00;;;;;;5032542;28;20458;-67
2024/03/19 00:45:52;;;;;;;25.13;9.73;;;10.20;98.00;;;;;;5032700;28;20501;-67
2024/03/19 00:48:20;;;;;;;26.53;10.43;;;10.20;98.00;;;;;;5032533;28;20460;-67
2024/03/19 00:50:48;;;;;;;28.23;10.67;;;10.40;98.00;;;;;;5032441;28;20462;-67
2024/03/19 00:53:15;;;;;;;24.73;10.20;;;10.30;98.00;;;;;;5032429;28;20451;-67
2024/03/19 00:55:42;;;;;;;30.07;10.00;;;10.20;98.00;;;;;;5032380;28;20971;-67
2024/03/19 00:58:10;;;;;;;26.00;10.37;;;10.20;98.00;;;;;;5014981;28;20447;-67
2024/03/19 01:00:40;;;;;;;27.03;11.10;;;10.20;98.00;;;;;;5032289;28;20822;-67
2024/03/19 01:03:09;;;;;;;22.10;9.67;;;10.20;98.00;;;;;;5032119;28;20465;-67
2024/03/19 01:05:36;;;;;;;32.47;9.53;;;10.20;98.00;;;;;;5031345;28;20557;-67
2024/03/19 01:08:06;;;;;;;22.57;9.07;;;10.20;98.00;;;;;;5032301;28;20463;-67
2024/03/19 01:10:34;;;;;;;22.90;9.37;;;10.00;98.00;;;;;;5031883;28;20483;-67
2024/03/19 01:13:10;;;;;;;20.07;9.07;;;9.90;98.00;;;;;;5014944;28;20944;-67
2024/03/19 01:15:40;;;;;;;18.90;8.97;;;10.00;98.00;;;;;;5015848;28;20456;-67
2024/03/19 01:18:08;;;;;;;19.87;9.17;;;10.00;98.00;;;;;;5032055;28;20456;-67
2024/03/19 01:20:36;;;;;;;22.13;9.70;;;10.10;98.00;;;;;;5032101;28;20464;-67
2024/03/19 01:23:04;;;;;;;19.87;8.80;;;10.20;98.00;;;;;;5032094;28;20953;-67
2024/03/19 01:25:32;;;;;;;18.77;9.03;;;10.30;98.00;;;;;;5031997;28;20478;-67
2024/03/19 01:27:59;;;;;;;23.73;10.23;;;10.30;98.00;;;;;;5031882;28;20484;-67
2024/03/19 01:30:27;;;;;;;18.73;8.80;;;10.30;98.00;;;;;;5031897;28;20496;-67
2024/03/19 01:32:58;;;;;;;22.90;8.70;;;10.20;98.00;;;;;;5032062;28;20461;-67
2024/03/19 01:35:25;;;;;;;24.50;10.10;;;10.20;98.00;;;;;;5031253;28;20455;-67
2024/03/19 01:37:52;;;;;;;23.93;10.23;;;10.10;98.00;;;;;;5031871;28;20464;-68
2024/03/19 01:40:22;;;;;;;21.00;9.00;;;10.00;98.00;;;;;;5031896;28;20456;-67
2024/03/19 01:42:49;;;;;;;21.30;9.13;;;10.00;98.00;;;;;;5031824;28;20456;-67
2024/03/19 01:45:17;;;;;;;22.67;9.40;;;10.00;98.00;;;;;;5031628;28;21133;-67
2024/03/19 01:47:44;;;;;;;23.90;9.87;;;10.10;98.00;;;;;;5031804;28;20996;-67
2024/03/19 01:50:14;;;;;;;23.40;9.40;;;10.00;98.00;;;;;;5031144;28;20483;-67
2024/03/19 01:52:44;;;;;;;20.77;9.03;;;9.90;98.00;;;;;;5031695;28;20512;-67
2024/03/19 01:55:13;;;;;;;19.00;8.23;;;9.90;98.00;;;;;;5031959;28;20539;-67
2024/03/19 01:57:40;;;;;;;21.73;9.17;;;9.80;98.00;;;;;;5031895;28;20462;-67
2024/03/19 02:00:12;;;;;;;28.93;9.13;;;9.90;98.00;;;;;;5031892;28;20949;-67
2024/03/19 02:02:39;;;;;;;18.20;8.47;;;9.90;98.00;;;;;;5031745;28;20541;-67
2024/03/19 02:05:08;;;;;;;16.47;7.90;;;9.80;98.00;;;;;;5031571;28;20458;-67
2024/03/19 02:07:37;;;;;;;24.13;9.77;;;9.70;98.00;;;;;;5031327;28;20457;-67
2024/03/19 02:10:07;;;;;;;17.27;8.47;;;9.80;98.00;;;;;;5031578;28;20490;-67
2024/03/19 02:12:35;;;;;;;17.47;8.07;;;9.90;98.00;;;;;;5031173;28;20456;-67
2024/03/19 02:15:02;;;;;;;19.37;8.10;;;9.80;98.00;;;;;;5013750;28;20788;-67
2024/03/19 02:17:30;;;;;;;17.43;7.97;;;9.80;98.00;;;;;;5033446;28;20490;-67
2024/03/19 02:19:58;;;;;;;24.30;9.07;;;9.80;98.00;;;;;;5034304;28;20510;-67
2024/03/19 02:22:28;;;;;;;17.50;8.10;;;9.70;98.00;;;;;;5035237;28;20482;-67
2024/03/19 02:24:55;;;;;;;15.50;7.80;;;9.60;98.00;;;;;;5035258;28;20494;-67
2024/03/19 02:27:22;;;;;;;17.53;7.37;;;9.50;98.00;;;;;;5035316;28;20498;-67
2024/03/19 02:29:50;;;;;;;15.97;7.27;;;9.50;98.00;;;;;;5035065;28;20486;-67
2024/03/19 02:32:17;;;;;;;24.67;7.30;;;9.60;98.00;;;;;;5035057;28;20475;-67
2024/03/19 02:34:44;;;;;;;16.13;7.70;;;9.50;98.00;;;;;;5034340;28;20869;-67
2024/03/19 02:37:12;;;;;;;15.07;7.30;;;9.50;98.00;;;;;;5034696;28;20462;-67
2024/03/19 02:39:40;;;;;;;14.80;7.37;;;9.50;98.00;;;;;;5035215;28;20448;-67
2024/03/19 02:42:07;;;;;;;14.93;7.30;;;9.60;98.00;;;;;;5034742;28;20470;-67
2024/03/19 02:44:34;;;;;;;13.80;6.40;;;9.60;98.00;;;;;;5034841;28;20458;-67
2024/03/19 02:47:01;;;;;;;16.43;6.70;;;9.50;98.00;;;;;;5034369;28;20470;-68
2024/03/19 02:49:30;;;;;;;13.57;6.30;;;9.60;98.00;;;;;;5034309;28;20480;-67
2024/03/19 02:51:57;;;;;;;15.90;6.53;;;9.50;98.00;;;;;;5034550;28;20464;-67
2024/03/19 02:54:25;;;;;;;13.23;6.40;;;9.40;98.00;;;;;;5034151;28;20459;-67
2024/03/19 02:56:55;;;;;;;12.23;6.37;;;9.30;98.00;;;;;;5034485;28;20455;-67
2024/03/19 02:59:23;;;;;;;13.57;6.87;;;9.50;98.00;;;;;;5034329;28;20547;-67
2024/03/19 03:01:50;;;;;;;17.13;6.90;;;9.40;98.00;;;;;;5034482;28;20561;-67
2024/03/19 03:04:18;;;;;;;13.97;7.20;;;9.40;98.00;;;;;;5034364;28;20461;-67
2024/03/19 03:06:45;;;;;;;15.63;7.43;;;9.40;98.00;;;;;;5034440;28;21203;-67
2024/03/19 03:09:12;;;;;;;12.87;6.87;;;9.40;98.00;;;;;;4999936;28;20458;-67
2024/03/19 03:11:39;;;;;;;14.03;6.60;;;9.40;98.00;;;;;;5033889;28;20459;-67
2024/03/19 03:14:08;;;;;;;12.67;6.53;;;9.40;98.00;;;;;;5034617;28;20833;-67
2024/03/19 03:16:35;;;;;;;20.87;6.47;;;9.40;98.00;;;;;;5034137;28;20503;-67
2024/03/19 03:19:04;;;;;;;13.17;6.53;;;9.40;98.00;;;;;;5034209;28;20489;-67
2024/03/19 03:21:31;;;;;;;13.10;6.10;;;9.30;98.00;;;;;;5034237;28;20848;-67
2024/03/19 03:23:59;;;;;;;12.90;6.43;;;9.30;98.00;;;;;;5034162;28;20828;-67
2024/03/19 03:26:35;;;;;;;14.57;6.73;;;9.30;98.00;;;;;;5033936;28;20545;-67
2024/03/19 03:29:02;;;;;;;11.63;5.87;;;9.40;98.00;;;;;;5034107;28;20944;-67
2024/03/19 03:31:34;;;;;;;18.17;6.30;;;9.40;98.00;;;;;;5033853;28;20461;-67
2024/03/19 03:34:01;;;;;;;13.37;6.47;;;9.40;98.00;;;;;;5033990;28;20495;-67
2024/03/19 03:36:28;;;;;;;13.87;6.60;;;9.30;98.00;;;;;;5033991;28;20475;-67
2024/03/19 03:38:55;;;;;;;14.00;6.53;;;9.30;98.00;;;;;;5034054;28;20806;-67
2024/03/19 03:41:23;;;;;;;12.47;5.90;;;9.30;98.00;;;;;;5016385;28;20965;-67
2024/03/19 03:43:50;;;;;;;11.67;5.67;;;9.20;98.00;;;;;;5016411;28;20457;-67
2024/03/19 03:46:17;;;;;;;11.70;6.03;;;9.20;98.00;;;;;;5033837;28;20462;-67
2024/03/19 03:48:46;;;;;;;11.27;5.80;;;9.10;98.00;;;;;;5033854;28;20459;-67
2024/03/19 03:51:13;;;;;;;11.73;5.60;;;9.20;98.00;;;;;;5033708;28;20488;-67
2024/03/19 03:53:41;;;;;;;11.97;5.60;;;9.30;98.00;;;;;;5033416;28;20976;-67
2024/03/19 03:56:09;;;;;;;13.30;6.10;;;9.30;98.00;;;;;;5033645;28;20460;-67
2024/03/19 03:58:36;;;;;;;11.30;5.53;;;9.30;98.00;;;;;;5015782;28;20460;-67
2024/03/19 04:01:03;;;;;;;10.10;5.47;;;9.10;98.00;;;;;;5015663;28;20958;-67
2024/03/19 04:03:32;;;;;;;11.00;5.43;;;9.10;98.00;;;;;;5033182;28;20459;-67
2024/03/19 04:06:01;;;;;;;13.10;5.60;;;9.10;98.00;;;;;;5033091;28;20472;-67
2024/03/19 04:08:28;;;;;;;11.10;5.40;;;9.20;98.00;;;;;;5033044;28;20964;-67
2024/03/19 04:10:58;;;;;;;10.80;5.50;;;9.30;98.00;;;;;;5032897;28;20486;-67
2024/03/19 04:13:25;;;;;;;10.50;5.40;;;9.30;98.00;;;;;;5033163;28;20807;-67
2024/03/19 04:15:53;;;;;;;10.30;5.47;;;9.20;98.00;;;;;;5032295;28;20469;-67
2024/03/19 04:18:21;;;;;;;32.23;11.40;;;9.20;98.00;;;;;;5042411;28;20457;-67
2024/03/19 04:20:50;;;;;;;13.43;6.53;;;9.10;98.00;;;;;;5052694;28;20457;-67
2024/03/19 04:23:19;;;;;;;17.77;7.00;;;9.10;98.00;;;;;;5052787;28;20455;-67
2024/03/19 04:25:46;;;;;;;12.53;6.20;;;8.90;98.00;;;;;;5052591;28;20479;-67
2024/03/19 04:28:14;;;;;;;9.93;5.50;;;8.80;98.00;;;;;;5034869;28;20449;-67
2024/03/19 04:30:41;;;;;;;14.77;6.37;;;8.80;98.00;;;;;;5052896;28;20861;-67
2024/03/19 04:33:09;;;;;;;12.60;6.27;;;8.80;98.00;;;;;;5052874;28;20450;-67
2024/03/19 04:35:37;;;;;;;15.80;6.70;;;8.80;98.00;;;;;;5052526;28;20469;-67
2024/03/19 04:38:05;;;;;;;12.40;6.27;;;8.80;98.00;;;;;;5052300;28;20446;-67
2024/03/19 04:40:37;;;;;;;13.17;6.10;;;8.80;98.00;;;;;;5051489;28;20488;-67
2024/03/19 04:43:04;;;;;;;15.13;6.97;;;8.80;98.00;;;;;;5051363;28;20465;-67
2024/03/19 04:45:32;;;;;;;14.80;7.00;;;8.90;98.00;;;;;;5047973;28;20449;-67
2024/03/19 04:47:59;;;;;;;12.27;6.37;;;8.90;98.00;;;;;;5031994;28;20465;-67
2024/03/19 04:50:27;;;;;;;15.13;6.43;;;8.80;98.00;;;;;;5047355;28;20535;-67
2024/03/19 04:52:54;;;;;;;11.40;6.20;;;8.90;98.00;;;;;;5032684;28;20909;-67
2024/03/19 04:55:22;;;;;;;21.10;10.73;;;9.00;98.00;;;;;;5031731;28;20447;-67
2024/03/19 04:57:50;;;;;;;14.57;8.80;;;9.30;98.00;;;;;;5032495;28;20543;-67
2024/03/19 05:00:18;;;;;;;13.20;6.43;;;9.30;98.00;;;;;;5032146;28;20458;-67
2024/03/19 05:02:49;;;;;;;13.77;6.73;;;9.20;98.00;;;;;;5032123;28;20463;-67
2024/03/19 05:05:16;;;;;;;14.70;7.87;;;9.30;98.00;;;;;;5032231;28;20462;-67
2024/03/19 05:07:44;;;;;;;15.53;7.70;;;9.20;98.00;;;;;;5031500;28;20447;-67
2024/03/19 05:10:11;;;;;;;19.80;7.50;;;9.20;98.00;;;;;;5031959;28;20583;-67
2024/03/19 05:12:39;;;;;;;11.77;6.60;;;9.10;98.00;;;;;;5032361;28;20451;-67
2024/03/19 05:15:08;;;;;;;13.67;5.93;;;9.00;98.00;;;;;;5032107;28;20462;-67
2024/03/19 05:17:35;;;;;;;13.60;6.10;;;9.00;98.00;;;;;;5032047;28;20948;-67
2024/03/19 05:20:04;;;;;;;14.47;6.03;;;9.10;98.00;;;;;;5032132;28;20466;-67
2024/03/19 05:22:32;;;;;;;11.13;5.77;;;8.90;98.00;;;;;;5032264;28;20459;-67
2024/03/19 05:24:59;;;;;;;11.37;5.60;;;8.90;98.00;;;;;;5047224;28;20455;-67
2024/03/19 05:27:26;;;;;;;11.60;6.00;;;8.90;98.00;;;;;;5032203;28;20470;-67
2024/03/19 05:29:54;;;;;;;11.60;6.03;;;8.90;98.00;;;;;;5032090;28;20465;-67
2024/03/19 05:32:24;;;;;;;10.73;5.80;;;9.00;98.00;;;;;;5031955;28;20459;-67
2024/03/19 05:34:53;;;;;;;11.47;5.60;;;9.00;98.00;;;;;;5032245;28;20465;-67
2024/03/19 05:37:20;;;;;;;12.30;6.10;;;8.90;98.00;;;;;;5031905;28;20957;-67
2024/03/19 05:39:47;;;;;;;11.90;5.63;;;8.90;98.00;;;;;;5032070;28;20928;-67
2024/03/19 05:42:14;;;;;;;12.50;6.47;;;8.90;98.00;;;;;;5031781;28;20469;-67
2024/03/19 05:44:41;;;;;;;14.23;6.30;;;9.00;98.00;;;;;;5032075;28;20486;-67
2024/03/19 05:47:08;;;;;;;17.77;7.37;;;8.90;98.00;;;;;;5031648;28;20812;-67
2024/03/19 05:49:36;;;;;;;14.87;7.07;;;8.70;98.00;;;;;;5031522;28;20455;-67
2024/03/19 05:52:04;;;;;;;18.53;5.80;;;8.70;98.00;;;;;;5032912;28;20497;-67
2024/03/19 05:54:32;;;;;;;11.50;5.30;;;8.60;98.00;;;;;;5035962;28;20490;-67
2024/03/19 05:56:59;;;;;;;10.00;5.00;;;8.70;98.00;;;;;;5035692;28;20456;-67
2024/03/19 05:59:27;;;;;;;12.17;5.87;;;8.60;98.00;;;;;;5035651;28;20457;-67
2024/03/19 06:01:54;;;;;;;8.00;4.73;;;8.60;98.00;;;;;;5050820;28;20462;-67
2024/03/19 06:04:21;;;;;;;13.03;5.67;;;8.50;98.00;;;;;;5035873;28;20463;-67
2024/03/19 06:06:50;;;;;;;11.70;6.37;;;8.50;98.00;;;;;;5035776;28;20819;-67
2024/03/19 06:09:17;;;;;;;17.40;6.30;;;8.50;98.00;;;;;;5035304;28;20471;-67
2024/03/19 06:11:47;;;;;;;11.47;5.57;;;8.60;98.00;;;;;;5035278;28;20500;-67
2024/03/19 06:14:15;;;;;;;12.77;5.47;;;8.60;98.00;;;;;;5035636;28;20540;-67
2024/03/19 06:16:42;;;;;;;9.70;5.30;;;8.70;98.00;;;;;;5035715;28;20456;-67
2024/03/19 06:19:09;;;;;;;9.07;5.03;;;8.70;98.00;;;;;;5035354;28;20462;-67
2024/03/19 06:21:36;;;;;;;10.67;4.97;;;8.80;98.00;;;;;;5034872;28;20812;-67
2024/03/19 06:24:06;;;;;;;8.23;4.60;;;8.90;98.00;;;;;;5035030;28;20452;-67
2024/03/19 06:26:34;;;;;;;8.77;4.90;;;9.00;98.00;;;;;;5035491;28;20968;-67
2024/03/19 06:29:03;;;;;;;11.47;6.50;;;8.90;98.00;;;;;;5034823;28;20519;-67
2024/03/19 06:31:32;;;;;;;12.77;6.70;;;9.10;98.00;;;;;;5034606;28;20552;-67
2024/03/19 06:33:59;;;;;;;12.67;6.47;;;9.10;98.00;;;;;;5034683;28;20459;-67
2024/03/19 06:36:26;;;;;;;12.63;6.00;;;9.10;98.00;;;;;;5034501;28;20462;-67
2024/03/19 06:38:54;;;;;;;11.43;6.13;;;9.00;98.00;;;;;;5034629;28;21090;-67
2024/03/19 06:41:23;;;;;;;12.30;6.30;;;9.00;98.00;;;;;;5034363;28;20456;-67
2024/03/19 06:43:50;;;;;;;12.00;5.90;;;9.00;98.00;;;;;;5033823;28;20504;-67
2024/03/19 06:46:17;;;;;;;10.17;5.90;;;9.10;98.00;;;;;;5049698;28;20465;-67
2024/03/19 06:48:45;;;;;;;12.20;6.30;;;9.00;98.00;;;;;;5034515;28;21126;-67
2024/03/19 06:51:13;;;;;;;11.40;6.40;;;9.10;98.00;;;;;;5033931;28;20506;-67
2024/03/19 06:53:40;;;;;;;16.13;7.47;;;9.20;98.00;;;;;;5034475;28;20967;-67
2024/03/19 06:56:09;;;;;;;15.20;6.40;;;9.40;98.00;;;;;;5032748;28;20819;-67
2024/03/19 06:58:44;;;;;;;12.73;7.00;;;9.50;98.00;;;;;;5034388;28;20458;-65
2024/03/19 07:01:12;;;;;;;12.97;6.47;;;9.50;98.00;;;;;;5049770;28;20494;-65
2024/03/19 07:03:39;;;;;;;15.17;6.83;;;9.50;98.00;;;;;;5033957;28;20458;-64
2024/03/19 07:06:07;;;;;;;14.90;7.20;;;9.40;98.00;;;;;;5034203;28;20490;-65
2024/03/19 07:08:34;;;;;;;14.30;7.07;;;9.30;98.00;;;;;;5034059;28;20468;-64
2024/03/19 07:11:02;;;;;;;13.40;7.00;;;9.20;98.00;;;;;;5034095;28;20485;-64
2024/03/19 07:13:31;;;;;;;14.20;6.90;;;9.40;98.00;;;;;;5049536;28;20817;-64
2024/03/19 07:15:59;;;;;;;16.03;7.83;;;9.30;98.00;;;;;;5034188;28;20533;-64
2024/03/19 07:18:27;;;;;;;12.73;6.80;;;9.40;98.00;;;;;;5034222;28;20458;-64
2024/03/19 07:20:56;;;;;;;15.43;7.70;;;9.50;98.00;;;;;;5034205;28;20447;-64
2024/03/19 07:23:24;;;;;;;18.70;7.60;;;9.50;98.00;;;;;;5034390;28;20453;-64
2024/03/19 07:25:54;;;;;;;16.30;7.30;;;9.50;98.00;;;;;;5034105;28;20468;-64
2024/03/19 07:28:21;;;;;;;17.20;7.40;;;9.50;98.00;;;;;;5034280;28;20977;-64
2024/03/19 07:30:48;;;;;;;15.40;7.10;;;9.60;98.00;;;;;;5034511;28;20493;-65
2024/03/19 07:33:16;;;;;;;13.80;7.03;;;9.70;98.00;;;;;;5034421;28;20458;-65
2024/03/19 07:35:44;;;;;;;12.60;7.33;;;9.70;98.00;;;;;;5034277;28;20464;-64
2024/03/19 07:38:13;;;;;;;16.47;7.87;;;9.90;98.00;;;;;;5034505;28;20458;-65
2024/03/19 07:40:40;;;;;;;18.23;7.53;;;10.00;98.00;;;;;;5034340;28;20462;-65
2024/03/19 07:43:07;;;;;;;14.23;7.97;;;9.90;98.00;;;;;;5034426;28;20859;-64
2024/03/19 07:45:36;;;;;;;14.27;7.10;;;9.80;98.00;;;;;;5034804;28;20526;-64
2024/03/19 07:48:04;;;;;;;16.00;7.53;;;9.80;98.00;;;;;;5035047;28;20457;-64
2024/03/19 07:50:34;;;;;;;16.50;7.80;;;10.00;98.00;;;;;;5035048;28;20456;-65
2024/03/19 07:53:02;;;;;;;13.10;7.27;;;10.20;98.00;;;;;;5034896;28;20597;-64
2024/03/19 07:55:29;;;;;;;20.47;9.10;;;10.40;98.00;;;;;;5034800;28;20865;-64
2024/03/19 07:57:56;;;;;;;16.97;7.63;;;10.50;98.00;;;;;;5034799;28;20801;-65
2024/03/19 08:00:25;;;;;;;20.50;8.57;;;10.60;98.00;;;;;;5034418;28;20861;-64
2024/03/19 08:02:53;;;;;;;18.03;7.67;;;10.60;98.00;;;;;;5034620;28;20533;-64
2024/03/19 08:05:20;;;;;;;17.53;8.03;;;10.70;98.00;;;;;;5034622;28;20462;-64
2024/03/19 08:07:49;;;;;;;21.57;9.10;;;10.80;98.00;;;;;;5033183;28;20541;-64
2024/03/19 08:10:16;;;;;;;18.90;8.47;;;10.70;98.00;;;;;;5034496;28;20469;-64
2024/03/19 08:12:43;;;;;;;24.97;10.30;;;10.70;98.00;;;;;;5034778;28;20483;-64
2024/03/19 08:15:11;;;;;;;18.63;9.07;;;10.40;98.00;;;;;;5033472;28;20509;-64
2024/03/19 08:17:39;;;;;;;22.90;9.67;;;10.30;98.00;;;;;;5243239;22;20890;-64
2024/03/19 08:20:15;;;;;;;19.70;8.90;;;10.50;98.00;;;;;;5052751;28;20459;-64
2024/03/19 08:22:43;;;;;;;21.73;10.10;;;10.70;98.00;;;;;;5053842;28;20459;-64
2024/03/19 08:25:13;;;;;;;24.20;10.00;;;11.00;98.00;;;;;;5053958;28;20537;-64
2024/03/19 08:27:40;;;;;;;21.00;9.90;;;11.10;98.00;;;;;;5053386;28;20462;-64
2024/03/19 08:30:09;;;;;;;20.03;9.33;;;11.20;98.00;;;;;;5053540;28;20452;-64
2024/03/19 08:32:37;;;;;;;24.60;10.27;;;11.30;98.00;;;;;;5052831;28;20531;-65
2024/03/19 08:35:08;;;;;;;18.63;9.30;;;11.40;98.00;;;;;;5053918;28;20451;-64
2024/03/19 08:37:36;;;;;;;18.13;9.50;;;11.40;98.00;;;;;;5053850;28;20496;-64
2024/03/19 08:40:06;;;;;;;21.50;9.47;;;11.50;98.00;;;;;;5053611;28;20502;-64
2024/03/19 08:42:35;;;;;;;18.77;9.37;;;11.60;98.00;;;;;;5053512;28;20486;-65
2024/03/19 08:45:03;;;;;;;22.43;9.90;;;11.70;98.00;;;;;;5052238;28;20481;-65
2024/03/19 08:47:31;;;;;;;21.63;9.53;;;11.70;98.00;;;;;;5053047;28;20957;-66
2024/03/19 08:49:58;;;;;;;22.37;10.50;;;11.80;98.00;;;;;;5053133;28;20514;-64
2024/03/19 08:52:26;;;;;;;22.37;10.63;;;11.90;98.00;;;;;;5053152;28;20478;-63
2024/03/19 08:54:53;;;;;;;21.23;9.50;;;11.80;98.00;;;;;;5052764;28;20454;-63
2024/03/19 08:57:20;;;;;;;20.73;9.50;;;11.70;98.00;;;;;;5052969;28;20481;-63
2024/03/19 08:59:51;;;;;;;19.40;9.20;;;11.80;98.00;;;;;;5052053;28;20462;-64
2024/03/19 09:02:18;;;;;;;17.90;9.27;;;11.90;98.00;;;;;;5053519;28;20447;-65
2024/03/19 09:04:46;;;;;;;22.10;8.83;;;12.00;98.00;;;;;;5052054;28;20458;-63
2024/03/19 09:07:15;;;;;;;20.90;9.47;;;12.20;98.00;;;;;;5052943;28;20918;-64
2024/03/19 09:09:45;;;;;;;21.93;9.10;;;12.50;98.00;;;;;;5052949;28;20454;-66
2024/03/19 09:12:12;;;;;;;16.67;8.50;;;12.60;98.00;;;;;;5052359;28;20488;-66
2024/03/19 09:14:42;;;;;;;16.80;8.23;;;12.70;98.00;;;;;;5059170;28;20867;-65
2024/03/19 09:17:11;;;;;;;18.63;8.83;;;13.00;98.00;;;;;;5072754;28;20832;-66
2024/03/19 09:19:41;;;;;;;16.57;8.00;;;13.20;98.00;;;;;;5072698;28;20451;-61
2024/03/19 09:22:09;;;;;;;17.20;8.60;;;13.40;98.00;;;;;;5072501;28;20947;-66
2024/03/19 09:24:37;;;;;;;14.80;6.77;;;13.50;98.00;;;;;;5071957;28;20460;-64
2024/03/19 09:27:06;;;;;;;19.37;7.50;;;13.70;98.00;;;;;;5071981;28;20843;-65
2024/03/19 09:29:33;;;;;;;14.60;6.97;;;13.90;98.00;;;;;;5071971;28;20460;-65
2024/03/19 09:32:00;;;;;;;14.20;7.50;;;14.00;98.00;;;;;;5086964;28;21009;-65
2024/03/19 09:34:31;;;;;;;14.63;7.57;;;14.10;98.00;;;;;;5071587;28;20485;-65
2024/03/19 09:36:58;;;;;;;14.40;6.90;;;14.30;98.00;;;;;;5071551;28;20492;-65
2024/03/19 09:39:25;;;;;;;14.97;7.43;;;14.60;98.00;;;;;;5086760;28;20462;-65
2024/03/19 09:42:08;;;;;;;11.97;6.43;;;14.60;98.00;;;;;;5071450;28;20450;-65
2024/03/19 09:44:35;;;;;;;11.30;5.70;;;14.80;98.00;;;;;;5071952;28;20463;-64
2024/03/19 09:47:04;;;;;;;12.33;6.40;;;15.00;98.00;;;;;;5071282;28;20868;-65
2024/03/19 09:49:34;;;;;;;12.20;6.20;;;15.00;98.00;;;;;;5070387;28;20550;-65
2024/03/19 09:52:05;;;;;;;14.40;6.93;;;15.10;98.00;;;;;;5071405;28;20513;-67
2024/03/19 09:54:33;;;;;;;11.27;6.40;;;15.20;98.00;;;;;;5071513;28;20457;-65
2024/03/19 09:57:03;;;;;;;14.43;6.97;;;15.20;98.00;;;;;;5071847;28;20800;-65
2024/03/19 09:59:31;;;;;;;15.20;7.10;;;15.40;98.00;;;;;;5272998;22;20877;-61
2024/03/19 10:01:59;;;;;;;13.90;6.67;;;15.40;98.00;;;;;;4993235;28;20965;-62
2024/03/19 10:04:26;;;;;;;13.93;7.43;;;15.40;98.00;;;;;;5011987;28;20461;-62
2024/03/19 10:06:54;;;;;;;11.80;6.40;;;15.50;98.00;;;;;;4993642;28;20454;-61
2024/03/19 10:09:31;;;;;;;12.33;6.53;;;15.60;98.00;;;;;;5011542;28;20537;-61
2024/03/19 10:11:58;;;;;;;9.87;5.40;;;15.60;98.00;;;;;;5011731;28;20585;-61
2024/03/19 10:14:26;;;;;;;10.47;5.57;;;15.70;98.00;;;;;;5011333;28;20925;-61
2024/03/19 10:16:53;;;;;;;11.40;5.50;;;15.70;98.00;;;;;;5011811;28;20459;-64
2024/03/19 10:19:20;;;;;;;6.43;3.67;;;15.60;98.00;;;;;;5011809;28;20960;-67
2024/03/19 10:21:47;;;;;;;9.03;5.00;;;15.70;98.00;;;;;;5011783;28;20459;-64
2024/03/19 10:24:17;;;;;;;8.70;5.20;;;15.90;98.00;;;;;;5011688;28;20937;-64
2024/03/19 10:26:46;;;;;;;9.50;4.67;;;16.00;98.00;;;;;;5010990;28;20960;-64
2024/03/19 10:29:15;;;;;;;9.70;5.47;;;16.00;98.00;;;;;;5009685;28;20825;-64
2024/03/19 10:31:44;;;;;;;11.30;5.10;;;16.10;98.00;;;;;;5010304;28;20560;-64
2024/03/19 10:34:18;;;;;;;10.50;5.00;;;16.40;98.00;;;;;;5011591;28;20467;-64
2024/03/19 10:36:48;;;;;;;9.00;5.30;;;16.60;98.00;;;;;;5011577;28;20509;-62
2024/03/19 10:39:19;;;;;;;8.20;4.83;;;16.80;98.00;;;;;;5014629;28;20543;-62
2024/03/19 10:41:51;;;;;;;8.00;4.77;;;16.90;98.00;;;;;;5015057;28;20482;-62
2024/03/19 10:44:21;;;;;;;9.03;4.77;;;16.90;98.00;;;;;;5015095;28;20843;-62
2024/03/19 10:46:49;;;;;;;7.47;4.37;;;17.00;98.00;;;;;;5015064;28;20507;-62
2024/03/19 10:49:21;;;;;;;9.10;4.77;;;17.20;98.00;;;;;;5014739;28;20470;-62
2024/03/19 10:51:52;;;;;;;7.17;4.30;;;17.40;98.00;;;;;;5014944;28;20480;-62
2024/03/19 10:54:26;;;;;;;9.63;4.73;;;17.50;98.00;;;;;;5015071;28;20514;-62
2024/03/19 10:56:54;;;;;;;7.10;4.07;;;17.60;98.00;;;;;;5014882;28;20455;-62
2024/03/19 10:59:21;;;;;;;6.53;3.97;;;17.80;98.00;;;;;;5014700;28;20946;-66
2024/03/19 11:01:52;;;;;;;7.20;4.37;;;18.10;98.00;;;;;;5014721;28;20526;-62
2024/03/19 11:04:27;;;;;;;7.63;4.07;;;18.10;98.00;;;;;;5014683;28;20463;-62
2024/03/19 11:06:56;;;;;;;9.27;4.50;;;18.40;98.00;;;;;;5014728;28;20455;-62
2024/03/19 11:09:28;;;;;;;5.60;3.77;;;18.70;98.00;;;;;;5014489;28;20491;-62
2024/03/19 11:11:57;;;;;;;5.10;3.60;;;19.00;98.00;;;;;;5014251;28;20483;-62
2024/03/19 11:14:25;;;;;;;6.00;3.47;;;18.80;98.00;;;;;;5014823;28;20460;-62
2024/03/19 11:16:52;;;;;;;6.07;3.50;;;18.60;98.00;;;;;;5015013;28;20448;-62
2024/03/19 11:19:21;;;;;;;4.40;3.23;;;18.70;98.00;;;;;;5014715;28;20463;-62
2024/03/19 11:21:50;;;;;;;5.57;3.20;;;18.90;98.00;;;;;;5014567;28;20869;-62
2024/03/19 11:24:28;;;;;;;4.33;3.13;;;18.90;98.00;;;;;;5014361;28;20467;-62
2024/03/19 11:29:40;;;;;;;6.43;3.00;;;19.60;98.00;;;;;;5014269;28;20964;-62
2024/03/19 11:32:08;;;;;;;6.37;3.60;;;19.80;98.00;;;;;;5014377;28;20489;-62
2024/03/19 11:34:35;;;;;;;3.57;2.70;;;19.90;98.00;;;;;;5014459;28;20459;-62
2024/03/19 11:37:03;;;;;;;5.00;3.40;;;19.80;98.00;;;;;;5014360;28;20460;-62
2024/03/19 11:39:32;;;;;;;5.33;3.27;;;20.00;98.00;;;;;;5014377;28;20459;-62
2024/03/19 11:42:00;;;;;;;4.40;2.87;;;20.20;98.00;;;;;;5012997;28;20521;-62
2024/03/19 11:44:27;;;;;;;5.53;2.97;;;20.00;98.00;;;;;;5014213;28;20968;-62
2024/03/19 11:46:55;;;;;;;3.70;2.70;;;20.30;98.00;;;;;;5014077;28;20460;-62
2024/03/19 11:49:23;;;;;;;4.10;2.90;;;20.50;98.00;;;;;;5012988;28;20455;-62
2024/03/19 11:52:00;;;;;;;5.30;2.73;;;20.70;98.00;;;;;;5010205;28;20461;-62
2024/03/19 11:54:28;;;;;;;3.73;2.90;;;20.80;98.00;;;;;;5014141;28;21004;-62
2024/03/19 11:56:57;;;;;;;3.80;2.70;;;20.80;98.00;;;;;;5014094;28;20808;-62
2024/03/19 11:59:25;;;;;;;3.20;2.60;;;20.70;98.00;;;;;;5013778;28;20455;-63
2024/03/19 12:01:53;;;;;;;4.50;2.90;;;20.90;98.00;;;;;;5014040;28;20459;-62
2024/03/19 12:04:21;;;;;;;3.47;2.80;;;20.80;98.00;;;;;;5013650;28;20513;-62
2024/03/19 12:06:49;;;;;;;5.30;2.90;;;21.10;98.00;;;;;;5013822;28;20459;-63
2024/03/19 12:09:17;;;;;;;3.70;2.93;;;21.10;98.00;;;;;;5013740;28;20451;-62
2024/03/19 12:11:45;;;;;;;3.10;2.33;;;21.20;98.00;;;;;;5013722;28;20462;-62
2024/03/19 12:14:15;;;;;;;3.53;2.57;;;21.40;98.00;;;;;;5013801;28;20499;-62
2024/03/19 12:16:42;;;;;;;3.30;2.40;;;21.30;98.00;;;;;;5012241;28;20482;-62
2024/03/19 12:19:15;;;;;;;4.83;2.80;;;21.60;98.00;;;;;;5013764;28;20459;-62
2024/03/19 12:21:44;;;;;;;4.13;2.50;;;21.60;98.00;;;;;;5013700;28;20496;-62
2024/03/19 12:24:12;;;;;;;3.37;2.50;;;21.90;98.00;;;;;;5013808;28;20513;-62
2024/03/19 12:26:43;;;;;;;3.20;2.50;;;21.90;98.00;;;;;;5013976;28;20459;-63
2024/03/19 12:29:14;;;;;;;3.70;2.70;;;22.10;98.00;;;;;;5013737;28;20448;-62
2024/03/19 12:31:49;;;;;;;3.80;2.80;;;22.20;98.00;;;;;;5013706;28;20452;-62
2024/03/19 12:34:37;;;;;;;3.50;2.43;;;22.30;97.10;;;;;;5013680;28;20580;-63
2024/03/19 12:37:05;;;;;;;3.37;2.30;;;22.10;97.60;;;;;;5013581;28;20827;-62
2024/03/19 12:39:33;;;;;;;3.27;2.17;;;21.50;98.00;;;;;;5013363;28;20796;-62
2024/03/19 12:42:01;;;;;;;3.60;2.33;;;21.50;97.80;;;;;;5012955;28;20483;-62
2024/03/19 12:44:30;;;;;;;4.07;2.10;;;21.10;95.70;;;;;;5012956;28;20509;-62
2024/03/19 12:46:58;;;;;;;3.40;2.30;;;20.90;97.10;;;;;;5012884;28;20460;-62
2024/03/19 12:49:25;;;;;;;2.53;2.17;;;21.20;98.00;;;;;;5012825;28;20467;-62
2024/03/19 12:51:54;;;;;;;4.53;2.13;;;21.50;96.80;;;;;;5013015;28;20459;-62